MSC Don Giovanni — 3FIV6 — position and weather

sailwx.info

Track history (hours):
 
Tides and Currents Weather Stations Pressure Air Temp Water Temp Dewpoint Dewpoint Depression Visibility Wind Speed Wind Dir Waves Ship Positions

MSC Don Giovanni

Last reported at 2017-Nov-19 11:58 UTC. Time now 2017-Nov-19 12:30 UTC.
Position N 44°44' E 037°47'.

Length 203 m; draft 11.6 m.

Type: Ship (hazmat cat A). MMSI: 356579000.

Date/timePositionNaut miles runAvg speedWind from/ knotsBaromVisibWave heightAir tempDewpointWater temp
2017-Nov-19 11:58N 44°44' E 037°47'0 0.0
2017-Nov-19 11:28N 44°44' E 037°47'0 0.0
2017-Nov-19 10:58N 44°44' E 037°47'0 0.0
2017-Nov-19 10:28N 44°44' E 037°47'0 0.0
2017-Nov-19 09:58N 44°44' E 037°47'0 0.0
2017-Nov-19 09:28N 44°44' E 037°47'0 0.0
2017-Nov-19 08:58N 44°44' E 037°47'0 0.0
2017-Nov-19 08:28N 44°44' E 037°47'0 0.0
2017-Nov-19 07:58N 44°44' E 037°47'0 0.0
2017-Nov-19 07:28N 44°44' E 037°47'0 0.0
2017-Nov-19 06:58N 44°44' E 037°47'0 0.0
2017-Nov-19 06:31N 44°44' E 037°47'0 0.7
2017-Nov-19 06:01N 44°43' E 037°47'2 3.1
2017-Nov-19 05:31N 44°42' E 037°49'6 6.5
2017-Nov-19 04:36N 44°37' E 037°51'1 9.2
2017-Nov-19 04:30N 44°36' E 037°51'5 9.5
2017-Nov-19 04:00N 44°31' E 037°49'2 3.1
2017-Nov-19 03:31N 44°30' E 037°48'3 6.2
2017-Nov-19 03:01N 44°27' E 037°46'2 4.7
2017-Nov-19 02:29N 44°26' E 037°43'2 4.5
2017-Nov-19 02:00N 44°26' E 037°40'511.1
2017-Nov-19 01:31N 44°27' E 037°32'611.8
2017-Nov-19 01:00N 44°26' E 037°24'0 0.7
2017-Nov-19 00:31N 44°26' E 037°24'0 0.9
2017-Nov-19 00:00N 44°26' E 037°25'0 0.8
2017-Nov-18 23:31N 44°26' E 037°25'0 0.7
2017-Nov-18 23:00N 44°26' E 037°26'0 0.7
2017-Nov-18 22:30N 44°26' E 037°26'0 0.7
2017-Nov-18 21:59N 44°25' E 037°27'0 0.8
2017-Nov-18 21:30N 44°25' E 037°27'0 0.7
2017-Nov-18 20:59N 44°25' E 037°28'0 0.7
2017-Nov-18 20:28N 44°25' E 037°28'0 0.6
2017-Nov-18 20:01N 44°25' E 037°28'0 0.6
2017-Nov-18 19:30N 44°25' E 037°29'0 0.6
2017-Nov-18 18:59N 44°25' E 037°29'0 0.6
2017-Nov-18 18:29N 44°24' E 037°30'0 0.5
2017-Nov-18 18:00N 44°24' E 037°30'0 0.5
2017-Nov-18 17:28N 44°24' E 037°30'0 0.5
2017-Nov-18 16:59N 44°24' E 037°31'0 0.5
2017-Nov-18 16:27N 44°24' E 037°31'0 0.5
2017-Nov-18 16:01N 44°24' E 037°31'0 0.6
2017-Nov-18 15:31N 44°24' E 037°31'0 0.7
2017-Nov-18 15:00N 44°24' E 037°32'0 0.6
2017-Nov-18 14:30N 44°23' E 037°32'0 0.5
2017-Nov-18 14:00N 44°23' E 037°33'0 0.4
2017-Nov-18 13:30N 44°23' E 037°33'0 0.4
2017-Nov-18 13:00N 44°23' E 037°33'0 0.3
2017-Nov-18 12:30N 44°23' E 037°33'0 0.5
2017-Nov-18 12:00N 44°23' E 037°33'2 4.5
2017-Nov-18 11:30N 44°24' E 037°30'713.6
2017-Nov-18 11:00N 44°22' E 037°21'34413.0
2017-Nov-17 08:31N 43°56' E 029°23'012.9
2017-Nov-17 08:28N 43°56' E 029°23'613.0
2017-Nov-17 07:59N 43°56' E 029°14'613.1
2017-Nov-17 07:30N 43°57' E 029°05'612.9
2017-Nov-17 07:00N 43°57' E 028°56'612.3
2017-Nov-17 06:30N 43°59' E 028°48'713.7
2017-Nov-17 06:00N 44°05' E 028°43'3 6.0
2017-Nov-17 05:30N 44°07' E 028°40'0 0.7
2017-Nov-17 05:00N 44°06' E 028°40'0 0.0
2017-Nov-17 04:29N 44°06' E 028°40'0 0.0
2017-Nov-17 03:59N 44°06' E 028°40'0 0.0
2017-Nov-17 03:29N 44°06' E 028°40'0 0.0
2017-Nov-17 02:59N 44°06' E 028°40'0 0.0
2017-Nov-17 02:29N 44°06' E 028°40'0 0.0
2017-Nov-17 01:59N 44°06' E 028°40'0 0.0
2017-Nov-17 01:29N 44°06' E 028°40'0 0.0
2017-Nov-17 00:59N 44°06' E 028°40'0 0.0
2017-Nov-17 00:29N 44°06' E 028°40'0 0.0
2017-Nov-16 23:59N 44°06' E 028°40'0 0.0
2017-Nov-16 23:29N 44°06' E 028°40'0 0.0
2017-Nov-16 22:59N 44°06' E 028°40'0 0.0
2017-Nov-16 22:29N 44°06' E 028°40'0 0.0
2017-Nov-16 21:59N 44°06' E 028°40'0 0.0
2017-Nov-16 21:29N 44°06' E 028°40'0 0.0
2017-Nov-16 20:59N 44°06' E 028°40'0 0.0
2017-Nov-16 20:29N 44°06' E 028°40'0 0.0
2017-Nov-16 19:59N 44°06' E 028°40'0 0.0
2017-Nov-16 19:29N 44°06' E 028°40'0 0.0
2017-Nov-16 18:59N 44°06' E 028°40'0 0.0
2017-Nov-16 18:29N 44°06' E 028°40'0 0.0
2017-Nov-16 17:59N 44°06' E 028°40'0 0.0
2017-Nov-16 17:29N 44°06' E 028°40'0 0.0
2017-Nov-16 16:59N 44°06' E 028°40'0 0.0
2017-Nov-16 16:29N 44°06' E 028°40'0 0.0
2017-Nov-16 15:59N 44°06' E 028°40'0 0.0
2017-Nov-16 15:29N 44°06' E 028°40'204 5.4
2017-Nov-15 01:31N 40°42' E 028°51'0 0.7
2017-Nov-15 01:13N 40°42' E 028°51'0 0.6
2017-Nov-15 01:00N 40°42' E 028°51'0 0.7
2017-Nov-15 00:26N 40°43' E 028°51'0 0.7
2017-Nov-14 23:55N 40°43' E 028°52'0 0.6
2017-Nov-14 23:27N 40°43' E 028°52'0 0.4
2017-Nov-14 22:58N 40°43' E 028°52'0 0.3
2017-Nov-14 22:16N 40°43' E 028°52'1 0.3
2017-Nov-14 18:10N 40°44' E 028°54'0 0.3
2017-Nov-14 17:36N 40°44' E 028°54'0 0.3
2017-Nov-14 17:30N 40°44' E 028°54'0 0.3
2017-Nov-14 16:08N 40°44' E 028°55'0 0.3
2017-Nov-14 15:55N 40°44' E 028°55'0 0.2
2017-Nov-14 15:30N 40°44' E 028°55'0 0.4
2017-Nov-14 14:38N 40°44' E 028°55'1 0.6
2017-Nov-14 13:24N 40°45' E 028°55'1 0.6
2017-Nov-14 12:14N 40°46' E 028°55'0 0.6
2017-Nov-14 11:56N 40°46' E 028°55'0 0.6
2017-Nov-14 11:24N 40°46' E 028°55'0 0.5
2017-Nov-14 10:52N 40°47' E 028°55'0 0.5
2017-Nov-14 10:30N 40°47' E 028°55'0 0.5
2017-Nov-14 09:56N 40°47' E 028°54'0 0.5
2017-Nov-14 09:26N 40°47' E 028°54'0 0.6
2017-Nov-14 08:59N 40°47' E 028°54'0 0.6
2017-Nov-14 08:30N 40°47' E 028°53'0 0.7
2017-Nov-14 08:00N 40°47' E 028°53'0 0.8
2017-Nov-14 07:30N 40°48' E 028°53'0 0.5
2017-Nov-14 06:50N 40°48' E 028°52'0 0.5
2017-Nov-14 06:28N 40°48' E 028°52'0 0.6
2017-Nov-14 06:00N 40°48' E 028°51'0 0.6
2017-Nov-14 05:30N 40°48' E 028°51'0 0.5
2017-Nov-14 05:00N 40°48' E 028°51'0 0.5
2017-Nov-14 04:26N 40°48' E 028°50'0 0.5
2017-Nov-14 04:00N 40°48' E 028°50'0 0.5
2017-Nov-14 03:20N 40°48' E 028°50'5 1.6
2017-Nov-14 00:11N 40°51' E 028°55'1 3.8
2017-Nov-13 23:59N 40°51' E 028°56'0 0.9
2017-Nov-13 23:30N 40°51' E 028°56'2 4.5
2017-Nov-13 23:00N 40°49' E 028°53'5 9.7
2017-Nov-13 22:30N 40°46' E 028°49'  
2017-Nov-09 16:29N 37°37' E 024°09'1513.6
2017-Nov-09 15:22N 37°36' E 023°50'512.4
2017-Nov-09 15:00N 37°37' E 023°44'713.7
2017-Nov-09 14:30N 37°43' E 023°40'713.9
2017-Nov-09 14:00N 37°50' E 023°37'713.2
2017-Nov-09 13:30N 37°56' E 023°37'2 2.8
2017-Nov-09 12:58N 37°57' E 023°35'0 0.0
2017-Nov-09 12:28N 37°57' E 023°35'  
Track history (hours):
 
Tides and Currents Weather Stations Pressure Air Temp Water Temp Dewpoint Dewpoint Depression Visibility Wind Speed Wind Dir Waves Ship Positions

MSC Don Giovanni

Last reported at 2017-Nov-19 11:58 UTC. Time now 2017-Nov-19 12:30 UTC.
Position N 44°44' E 037°47'.

Length 203 m; draft 11.6 m.

Type: Ship (hazmat cat A). MMSI: 356579000.

Date/timePositionNaut miles runAvg speedWind from/ knotsBaromVisibWave heightAir tempDewpointWater temp
2017-Nov-19 11:58N 44°44' E 037°47'0 0.0
2017-Nov-19 11:28N 44°44' E 037°47'0 0.0
2017-Nov-19 10:58N 44°44' E 037°47'0 0.0
2017-Nov-19 10:28N 44°44' E 037°47'0 0.0
2017-Nov-19 09:58N 44°44' E 037°47'0 0.0
2017-Nov-19 09:28N 44°44' E 037°47'0 0.0
2017-Nov-19 08:58N 44°44' E 037°47'0 0.0
2017-Nov-19 08:28N 44°44' E 037°47'0 0.0
2017-Nov-19 07:58N 44°44' E 037°47'0 0.0
2017-Nov-19 07:28N 44°44' E 037°47'0 0.0
2017-Nov-19 06:58N 44°44' E 037°47'0 0.0
2017-Nov-19 06:31N 44°44' E 037°47'0 0.7
2017-Nov-19 06:01N 44°43' E 037°47'2 3.1
2017-Nov-19 05:31N 44°42' E 037°49'6 6.5
2017-Nov-19 04:36N 44°37' E 037°51'1 9.2
2017-Nov-19 04:30N 44°36' E 037°51'5 9.5
2017-Nov-19 04:00N 44°31' E 037°49'2 3.1
2017-Nov-19 03:31N 44°30' E 037°48'3 6.2
2017-Nov-19 03:01N 44°27' E 037°46'2 4.7
2017-Nov-19 02:29N 44°26' E 037°43'2 4.5
2017-Nov-19 02:00N 44°26' E 037°40'511.1
2017-Nov-19 01:31N 44°27' E 037°32'611.8
2017-Nov-19 01:00N 44°26' E 037°24'0 0.7
2017-Nov-19 00:31N 44°26' E 037°24'0 0.9
2017-Nov-19 00:00N 44°26' E 037°25'0 0.8
2017-Nov-18 23:31N 44°26' E 037°25'0 0.7
2017-Nov-18 23:00N 44°26' E 037°26'0 0.7
2017-Nov-18 22:30N 44°26' E 037°26'0 0.7
2017-Nov-18 21:59N 44°25' E 037°27'0 0.8
2017-Nov-18 21:30N 44°25' E 037°27'0 0.7
2017-Nov-18 20:59N 44°25' E 037°28'0 0.7
2017-Nov-18 20:28N 44°25' E 037°28'0 0.6
2017-Nov-18 20:01N 44°25' E 037°28'0 0.6
2017-Nov-18 19:30N 44°25' E 037°29'0 0.6
2017-Nov-18 18:59N 44°25' E 037°29'0 0.6
2017-Nov-18 18:29N 44°24' E 037°30'0 0.5
2017-Nov-18 18:00N 44°24' E 037°30'0 0.5
2017-Nov-18 17:28N 44°24' E 037°30'0 0.5
2017-Nov-18 16:59N 44°24' E 037°31'0 0.5
2017-Nov-18 16:27N 44°24' E 037°31'0 0.5
2017-Nov-18 16:01N 44°24' E 037°31'0 0.6
2017-Nov-18 15:31N 44°24' E 037°31'0 0.7
2017-Nov-18 15:00N 44°24' E 037°32'0 0.6
2017-Nov-18 14:30N 44°23' E 037°32'0 0.5
2017-Nov-18 14:00N 44°23' E 037°33'0 0.4
2017-Nov-18 13:30N 44°23' E 037°33'0 0.4
2017-Nov-18 13:00N 44°23' E 037°33'0 0.3
2017-Nov-18 12:30N 44°23' E 037°33'0 0.5
2017-Nov-18 12:00N 44°23' E 037°33'2 4.5
2017-Nov-18 11:30N 44°24' E 037°30'713.6
2017-Nov-18 11:00N 44°22' E 037°21'34413.0
2017-Nov-17 08:31N 43°56' E 029°23'012.9
2017-Nov-17 08:28N 43°56' E 029°23'613.0
2017-Nov-17 07:59N 43°56' E 029°14'613.1
2017-Nov-17 07:30N 43°57' E 029°05'612.9
2017-Nov-17 07:00N 43°57' E 028°56'612.3
2017-Nov-17 06:30N 43°59' E 028°48'713.7
2017-Nov-17 06:00N 44°05' E 028°43'3 6.0
2017-Nov-17 05:30N 44°07' E 028°40'0 0.7
2017-Nov-17 05:00N 44°06' E 028°40'0 0.0
2017-Nov-17 04:29N 44°06' E 028°40'0 0.0
2017-Nov-17 03:59N 44°06' E 028°40'0 0.0
2017-Nov-17 03:29N 44°06' E 028°40'0 0.0
2017-Nov-17 02:59N 44°06' E 028°40'0 0.0
2017-Nov-17 02:29N 44°06' E 028°40'0 0.0
2017-Nov-17 01:59N 44°06' E 028°40'0 0.0
2017-Nov-17 01:29N 44°06' E 028°40'0 0.0
2017-Nov-17 00:59N 44°06' E 028°40'0 0.0
2017-Nov-17 00:29N 44°06' E 028°40'0 0.0
2017-Nov-16 23:59N 44°06' E 028°40'0 0.0
2017-Nov-16 23:29N 44°06' E 028°40'0 0.0
2017-Nov-16 22:59N 44°06' E 028°40'0 0.0
2017-Nov-16 22:29N 44°06' E 028°40'0 0.0
2017-Nov-16 21:59N 44°06' E 028°40'0 0.0
2017-Nov-16 21:29N 44°06' E 028°40'0 0.0
2017-Nov-16 20:59N 44°06' E 028°40'0 0.0
2017-Nov-16 20:29N 44°06' E 028°40'0 0.0
2017-Nov-16 19:59N 44°06' E 028°40'0 0.0
2017-Nov-16 19:29N 44°06' E 028°40'0 0.0
2017-Nov-16 18:59N 44°06' E 028°40'0 0.0
2017-Nov-16 18:29N 44°06' E 028°40'0 0.0
2017-Nov-16 17:59N 44°06' E 028°40'0 0.0
2017-Nov-16 17:29N 44°06' E 028°40'0 0.0
2017-Nov-16 16:59N 44°06' E 028°40'0 0.0
2017-Nov-16 16:29N 44°06' E 028°40'0 0.0
2017-Nov-16 15:59N 44°06' E 028°40'0 0.0
2017-Nov-16 15:29N 44°06' E 028°40'204 5.4
2017-Nov-15 01:31N 40°42' E 028°51'0 0.7
2017-Nov-15 01:13N 40°42' E 028°51'0 0.6
2017-Nov-15 01:00N 40°42' E 028°51'0 0.7
2017-Nov-15 00:26N 40°43' E 028°51'0 0.7
2017-Nov-14 23:55N 40°43' E 028°52'0 0.6
2017-Nov-14 23:27N 40°43' E 028°52'0 0.4
2017-Nov-14 22:58N 40°43' E 028°52'0 0.3
2017-Nov-14 22:16N 40°43' E 028°52'1 0.3
2017-Nov-14 18:10N 40°44' E 028°54'0 0.3
2017-Nov-14 17:36N 40°44' E 028°54'0 0.3
2017-Nov-14 17:30N 40°44' E 028°54'0 0.3
2017-Nov-14 16:08N 40°44' E 028°55'0 0.3
2017-Nov-14 15:55N 40°44' E 028°55'0 0.2
2017-Nov-14 15:30N 40°44' E 028°55'0 0.4
2017-Nov-14 14:38N 40°44' E 028°55'1 0.6
2017-Nov-14 13:24N 40°45' E 028°55'1 0.6
2017-Nov-14 12:14N 40°46' E 028°55'0 0.6
2017-Nov-14 11:56N 40°46' E 028°55'0 0.6
2017-Nov-14 11:24N 40°46' E 028°55'0 0.5
2017-Nov-14 10:52N 40°47' E 028°55'0 0.5
2017-Nov-14 10:30N 40°47' E 028°55'0 0.5
2017-Nov-14 09:56N 40°47' E 028°54'0 0.5
2017-Nov-14 09:26N 40°47' E 028°54'0 0.6
2017-Nov-14 08:59N 40°47' E 028°54'0 0.6
2017-Nov-14 08:30N 40°47' E 028°53'0 0.7
2017-Nov-14 08:00N 40°47' E 028°53'0 0.8
2017-Nov-14 07:30N 40°48' E 028°53'0 0.5
2017-Nov-14 06:50N 40°48' E 028°52'0 0.5
2017-Nov-14 06:28N 40°48' E 028°52'0 0.6
2017-Nov-14 06:00N 40°48' E 028°51'0 0.6
2017-Nov-14 05:30N 40°48' E 028°51'0 0.5
2017-Nov-14 05:00N 40°48' E 028°51'0 0.5
2017-Nov-14 04:26N 40°48' E 028°50'0 0.5
2017-Nov-14 04:00N 40°48' E 028°50'0 0.5
2017-Nov-14 03:20N 40°48' E 028°50'5 1.6
2017-Nov-14 00:11N 40°51' E 028°55'1 3.8
2017-Nov-13 23:59N 40°51' E 028°56'0 0.9
2017-Nov-13 23:30N 40°51' E 028°56'2 4.5
2017-Nov-13 23:00N 40°49' E 028°53'5 9.7
2017-Nov-13 22:30N 40°46' E 028°49'  
2017-Nov-09 16:29N 37°37' E 024°09'1513.6
2017-Nov-09 15:22N 37°36' E 023°50'512.4
2017-Nov-09 15:00N 37°37' E 023°44'713.7
2017-Nov-09 14:30N 37°43' E 023°40'713.9
2017-Nov-09 14:00N 37°50' E 023°37'713.2
2017-Nov-09 13:30N 37°56' E 023°37'2 2.8
2017-Nov-09 12:58N 37°57' E 023°35'0 0.0
2017-Nov-09 12:28N 37°57' E 023°35'  

Dump ship's entire track history